createdAt,value
2023-05-12T00:01:53.119Z,101217.28
2023-05-12T00:04:19.835Z,101213.56
2023-05-12T00:06:46.436Z,101212.00
2023-05-12T00:09:13.034Z,101211.41
2023-05-12T00:11:39.682Z,101212.47
2023-05-12T00:14:07.096Z,101210.22
2023-05-12T00:16:33.823Z,101207.56
2023-05-12T00:19:00.701Z,101201.69
2023-05-12T00:21:27.301Z,101209.25
2023-05-12T00:23:53.915Z,101200.97
2023-05-12T00:26:21.030Z,101205.91
2023-05-12T00:28:48.757Z,101200.03
2023-05-12T00:31:15.954Z,101205.19
2023-05-12T00:33:42.740Z,101207.06
2023-05-12T00:36:09.629Z,101200.97
2023-05-12T00:38:37.388Z,101206.97
2023-05-12T00:41:04.735Z,101211.78
2023-05-12T00:43:31.972Z,101207.78
2023-05-12T00:45:59.033Z,101214.50
2023-05-12T00:48:26.200Z,101206.25
2023-05-12T00:50:54.003Z,101222.06
2023-05-12T00:53:20.703Z,101221.34
2023-05-12T00:55:47.392Z,101217.88
2023-05-12T00:58:14.516Z,101221.28
2023-05-12T01:00:41.170Z,101217.59
2023-05-12T01:03:08.435Z,101222.47
2023-05-12T01:05:56.815Z,101220.06
2023-05-12T01:08:24.874Z,101221.97
2023-05-12T01:10:51.471Z,101225.81
2023-05-12T01:13:18.193Z,101217.63
2023-05-12T01:15:48.369Z,101224.94
2023-05-12T01:18:20.139Z,101232.13
2023-05-12T01:20:48.204Z,101224.09
2023-05-12T01:23:18.462Z,101228.00
2023-05-12T01:25:47.186Z,101227.47
2023-05-12T01:28:13.912Z,101220.56
2023-05-12T01:30:42.018Z,101231.44
2023-05-12T01:33:09.644Z,101226.75
2023-05-12T01:35:36.452Z,101233.53
2023-05-12T01:38:03.207Z,101236.34
2023-05-12T01:40:29.924Z,101226.72
2023-05-12T01:42:56.577Z,101236.50
2023-05-12T01:45:23.150Z,101228.50
2023-05-12T01:47:49.774Z,101242.06
2023-05-12T01:50:16.433Z,101231.50
2023-05-12T01:52:44.604Z,101238.13
2023-05-12T01:55:11.288Z,101237.34
2023-05-12T01:57:37.879Z,101237.47
2023-05-12T02:00:04.873Z,101236.50
2023-05-12T02:02:33.967Z,101235.88
2023-05-12T02:05:00.738Z,101233.13
2023-05-12T02:07:27.313Z,101235.03
2023-05-12T02:09:53.909Z,101236.34
2023-05-12T02:12:20.497Z,101244.97
2023-05-12T02:14:47.175Z,101245.69
2023-05-12T02:17:14.018Z,101243.41
2023-05-12T02:19:41.025Z,101252.75
2023-05-12T02:22:07.610Z,101252.44
2023-05-12T02:24:34.203Z,101247.59
2023-05-12T02:27:00.781Z,101247.91
2023-05-12T02:29:27.364Z,101247.44
2023-05-12T02:31:54.014Z,101249.94
2023-05-12T02:34:20.581Z,101252.34
2023-05-12T02:36:47.251Z,101246.06
2023-05-12T02:39:13.996Z,101245.44
2023-05-12T02:41:40.600Z,101257.25
2023-05-12T02:44:07.438Z,101255.19
2023-05-12T02:46:34.259Z,101255.50
2023-05-12T02:49:00.855Z,101252.88
2023-05-12T02:51:27.433Z,101258.97
2023-05-12T02:53:54.024Z,101257.63
2023-05-12T02:56:21.094Z,101248.88
2023-05-12T02:58:47.722Z,101251.22
2023-05-12T03:01:14.717Z,101253.41
2023-05-12T03:03:41.658Z,101246.16
2023-05-12T03:06:08.490Z,101249.09
2023-05-12T03:08:35.092Z,101253.31
2023-05-12T03:11:02.015Z,101255.63
2023-05-12T03:13:28.609Z,101258.69
2023-05-12T03:15:55.808Z,101260.06
2023-05-12T03:18:22.681Z,101260.38
2023-05-12T03:20:49.316Z,101254.56
2023-05-12T03:23:16.924Z,101260.06
2023-05-12T03:25:43.629Z,101263.50
2023-05-12T03:28:10.724Z,101258.47
2023-05-12T03:30:37.302Z,101268.94
2023-05-12T03:33:04.009Z,101260.19
2023-05-12T03:35:31.124Z,101268.69
2023-05-12T03:37:57.713Z,101265.44
2023-05-12T03:40:24.303Z,101271.13
2023-05-12T03:42:50.895Z,101264.69
2023-05-12T03:45:18.014Z,101280.25
2023-05-12T03:47:44.714Z,101277.28
2023-05-12T03:50:11.488Z,101277.03
2023-05-12T03:52:38.653Z,101272.00
2023-05-12T03:55:06.974Z,101270.59
2023-05-12T03:57:36.388Z,101272.53
2023-05-12T04:00:04.880Z,101263.81
2023-05-12T04:02:31.769Z,101271.88
2023-05-12T04:04:58.565Z,101271.47
2023-05-12T04:07:25.158Z,101274.09
2023-05-12T04:09:52.006Z,101276.06
2023-05-12T04:12:18.625Z,101278.22
2023-05-12T04:14:45.241Z,101278.13
2023-05-12T04:17:11.861Z,101279.06
2023-05-12T04:19:38.655Z,101287.03
2023-05-12T04:22:05.421Z,101282.16
2023-05-12T04:24:32.090Z,101282.75
2023-05-12T04:26:58.714Z,101277.59
2023-05-12T04:29:25.369Z,101281.69
2023-05-12T04:31:55.077Z,101277.41
2023-05-12T04:34:21.662Z,101283.47
2023-05-12T04:36:48.289Z,101281.03
2023-05-12T04:39:14.898Z,101282.34
2023-05-12T04:41:41.468Z,101287.22
2023-05-12T04:44:09.528Z,101291.22
2023-05-12T04:46:36.225Z,101292.38
2023-05-12T04:49:04.611Z,101297.13
2023-05-12T04:51:32.188Z,101306.41
2023-05-12T04:53:58.791Z,101301.53
2023-05-12T04:56:25.558Z,101297.66
2023-05-12T04:58:52.202Z,101304.72
2023-05-12T05:01:18.986Z,101313.28
2023-05-12T05:03:45.802Z,101314.66
2023-05-12T05:06:12.583Z,101317.91
2023-05-12T05:08:39.136Z,101313.72
2023-05-12T05:11:05.819Z,101318.75
2023-05-12T05:13:32.368Z,101323.41
2023-05-12T05:15:59.011Z,101327.78
2023-05-12T05:18:25.902Z,101324.44
2023-05-12T05:20:57.883Z,101331.78
2023-05-12T05:23:26.016Z,101327.31
2023-05-12T05:25:52.859Z,101334.53
2023-05-12T05:28:19.434Z,101333.56
2023-05-12T05:30:46.005Z,101329.97
2023-05-12T05:33:13.366Z,101334.59
2023-05-12T05:35:40.412Z,101337.41
2023-05-12T05:38:07.047Z,101335.94
2023-05-12T05:40:41.560Z,101336.88
2023-05-12T05:43:18.666Z,101342.72
2023-05-12T05:45:45.463Z,101350.53
2023-05-12T05:48:12.264Z,101343.72
2023-05-12T05:50:38.953Z,101349.84
2023-05-12T05:53:06.180Z,101354.97
2023-05-12T05:55:32.808Z,101361.47
2023-05-12T05:57:59.525Z,101350.66
2023-05-12T06:00:26.097Z,101358.47
2023-05-12T06:02:52.888Z,101358.81
2023-05-12T06:05:19.997Z,101362.53
2023-05-12T06:07:46.768Z,101360.84
2023-05-12T06:10:13.377Z,101363.84
2023-05-12T06:12:41.180Z,101360.72
2023-05-12T06:15:08.600Z,101363.97
2023-05-12T06:17:35.347Z,101367.63
2023-05-12T06:20:02.670Z,101366.44
2023-05-12T06:22:29.289Z,101369.81
2023-05-12T06:24:55.872Z,101372.72
2023-05-12T06:27:22.780Z,101379.59
2023-05-12T06:29:49.345Z,101378.19
2023-05-12T06:32:16.099Z,101383.69
2023-05-12T06:34:42.793Z,101384.84
2023-05-12T06:37:10.552Z,101382.00
2023-05-12T06:39:37.541Z,101383.38
2023-05-12T06:42:04.623Z,101387.63
2023-05-12T06:44:31.440Z,101386.19
2023-05-12T06:46:58.094Z,101379.66
2023-05-12T06:49:25.527Z,101376.19
2023-05-12T06:51:52.252Z,101385.66
2023-05-12T06:54:18.908Z,101390.03
2023-05-12T06:56:45.944Z,101382.31
2023-05-12T06:59:12.935Z,101388.31
2023-05-12T07:01:40.872Z,101390.56
2023-05-12T07:04:08.169Z,101387.63
2023-05-12T07:06:35.211Z,101393.97
2023-05-12T07:09:02.736Z,101398.47
2023-05-12T07:11:29.581Z,101404.13
2023-05-12T07:13:59.704Z,101393.34
2023-05-12T07:16:26.737Z,101400.25
2023-05-12T07:18:53.528Z,101389.81
2023-05-12T07:21:23.022Z,101395.25
2023-05-12T07:23:49.721Z,101391.19
2023-05-12T07:26:17.183Z,101396.16
2023-05-12T07:28:44.078Z,101393.34
2023-05-12T07:31:10.742Z,101381.72
2023-05-12T07:33:37.381Z,101388.66
2023-05-12T07:36:04.957Z,101388.66
2023-05-12T07:38:32.268Z,101392.31
2023-05-12T07:41:00.150Z,101384.59
2023-05-12T07:43:27.038Z,101392.84
2023-05-12T07:45:56.049Z,101395.72
2023-05-12T07:48:22.762Z,101391.94
2023-05-12T07:50:49.422Z,101396.25
2023-05-12T07:53:16.074Z,101391.09
2023-05-12T07:55:43.709Z,101394.44
2023-05-12T07:58:10.670Z,101390.31
2023-05-12T08:00:37.452Z,101396.06
2023-05-12T08:03:06.568Z,101400.59
2023-05-12T08:05:34.940Z,101396.50
2023-05-12T08:08:01.606Z,101394.97
2023-05-12T08:10:29.976Z,101400.44
2023-05-12T08:12:56.809Z,101400.94
2023-05-12T08:15:23.598Z,101391.31
2023-05-12T08:17:58.911Z,101404.31
2023-05-12T08:20:25.963Z,101390.59
2023-05-12T08:23:09.764Z,101393.34
2023-05-12T08:25:40.974Z,101395.66
2023-05-12T08:28:07.696Z,101395.03
2023-05-12T08:30:34.371Z,101399.84
2023-05-12T08:33:01.891Z,101393.22
2023-05-12T08:35:38.380Z,101400.28
2023-05-12T08:38:07.819Z,101398.09
2023-05-12T08:40:43.609Z,101402.81
2023-05-12T08:43:22.804Z,101398.56
2023-05-12T08:45:50.308Z,101403.50
2023-05-12T08:48:19.996Z,101402.84
2023-05-12T08:50:51.472Z,101397.84
2023-05-12T08:53:19.274Z,101400.63
2023-05-12T08:56:01.381Z,101395.16
2023-05-12T08:58:41.785Z,101399.50
2023-05-12T09:01:18.029Z,101393.81
2023-05-12T09:03:44.885Z,101395.16
2023-05-12T09:06:12.238Z,101389.31
2023-05-12T09:08:40.718Z,101391.81
2023-05-12T09:11:12.436Z,101383.28
2023-05-12T09:13:48.107Z,101395.50
2023-05-12T09:16:17.957Z,101398.78
2023-05-12T09:18:52.305Z,101402.66
2023-05-12T09:21:19.979Z,101390.63
2023-05-12T09:24:01.594Z,101393.47
2023-05-12T09:26:29.245Z,101395.63
2023-05-12T09:29:06.689Z,101381.44
2023-05-12T09:31:34.064Z,101385.81
2023-05-12T09:34:02.374Z,101400.31
2023-05-12T09:36:29.118Z,101400.31
2023-05-12T09:39:07.248Z,101383.81
2023-05-12T09:41:41.692Z,101382.16
2023-05-12T09:44:09.662Z,101387.63
2023-05-12T09:46:37.402Z,101389.78
2023-05-12T09:49:05.216Z,101379.44
2023-05-12T09:51:32.363Z,101388.78
2023-05-12T09:53:59.662Z,101387.50
2023-05-12T09:56:30.279Z,101387.16
2023-05-12T09:58:58.155Z,101381.25
2023-05-12T10:01:26.055Z,101380.88
2023-05-12T10:03:55.888Z,101381.75
2023-05-12T10:06:32.240Z,101375.75
2023-05-12T10:09:23.967Z,101385.47
2023-05-12T10:11:53.683Z,101383.63
2023-05-12T10:14:22.583Z,101375.78
2023-05-12T10:16:50.377Z,101371.75
2023-05-12T10:19:17.627Z,101368.38
2023-05-12T10:21:46.327Z,101375.22
2023-05-12T10:24:19.522Z,101362.47
2023-05-12T10:26:46.538Z,101378.25
2023-05-12T10:29:14.118Z,101367.84
2023-05-12T10:31:41.332Z,101353.13
2023-05-12T10:34:08.044Z,101351.00
2023-05-12T10:36:47.575Z,101360.97
2023-05-12T10:39:16.640Z,101360.28
2023-05-12T10:41:43.306Z,101357.38
2023-05-12T10:44:10.883Z,101365.72
2023-05-12T10:46:37.904Z,101356.78
2023-05-12T10:49:15.596Z,101360.41
2023-05-12T10:51:45.066Z,101363.69
2023-05-12T10:54:22.921Z,101367.75
2023-05-12T10:56:50.429Z,101366.88
2023-05-12T10:59:19.686Z,101357.72
2023-05-12T11:02:01.805Z,101348.75
2023-05-12T11:04:58.963Z,101349.19
2023-05-12T11:07:33.121Z,101351.56
2023-05-12T11:10:04.550Z,101350.81
2023-05-12T11:12:33.640Z,101363.91
2023-05-12T11:15:01.831Z,101350.25
2023-05-12T11:17:28.701Z,101350.34
2023-05-12T11:19:56.037Z,101355.81
2023-05-12T11:22:23.711Z,101353.59
2023-05-12T11:24:51.445Z,101346.25
2023-05-12T11:27:20.567Z,101349.25
2023-05-12T11:29:57.919Z,101348.34
2023-05-12T11:32:24.609Z,101344.53
2023-05-12T11:34:51.288Z,101347.69
2023-05-12T11:37:21.271Z,101354.75
2023-05-12T11:39:48.411Z,101345.69
2023-05-12T11:42:18.628Z,101357.72
2023-05-12T11:44:50.663Z,101352.00
2023-05-12T11:47:19.476Z,101363.53
2023-05-12T11:49:51.112Z,101360.34
2023-05-12T11:52:19.807Z,101366.41
2023-05-12T11:54:57.604Z,101367.06
2023-05-12T11:57:31.885Z,101360.78
2023-05-12T12:00:03.281Z,101364.53
2023-05-12T12:02:30.516Z,101366.06
2023-05-12T12:04:57.994Z,101357.84
2023-05-12T12:07:36.559Z,101356.50
2023-05-12T12:10:14.141Z,101353.16
2023-05-12T12:12:41.817Z,101360.47
2023-05-12T12:15:09.865Z,101370.31
2023-05-12T12:17:36.909Z,101364.00
2023-05-12T12:20:04.246Z,101361.06
2023-05-12T12:22:35.474Z,101348.06
2023-05-12T12:25:03.143Z,101353.94
2023-05-12T12:27:29.962Z,101351.22
2023-05-12T12:29:56.586Z,101360.63
2023-05-12T12:32:23.566Z,101366.69
2023-05-12T12:34:50.340Z,101367.09
2023-05-12T12:37:17.320Z,101358.97
2023-05-12T12:39:44.093Z,101345.66
2023-05-12T12:42:10.683Z,101355.28
2023-05-12T12:44:43.712Z,101351.16
2023-05-12T12:47:10.521Z,101359.78
2023-05-12T12:49:40.245Z,101362.50
2023-05-12T12:52:07.100Z,101362.09
2023-05-12T12:54:34.220Z,101360.47
2023-05-12T12:57:01.112Z,101352.31
2023-05-12T12:59:28.093Z,101352.59
2023-05-12T13:02:00.080Z,101355.81
2023-05-12T13:04:26.935Z,101346.97
2023-05-12T13:06:53.767Z,101351.84
2023-05-12T13:09:21.865Z,101354.47
2023-05-12T13:11:48.772Z,101352.13
2023-05-12T13:14:16.069Z,101350.81
2023-05-12T13:16:43.312Z,101344.75
2023-05-12T13:19:10.181Z,101351.25
2023-05-12T13:21:41.226Z,101352.25
2023-05-12T13:24:08.071Z,101346.78
2023-05-12T13:26:34.750Z,101353.16
2023-05-12T13:29:01.423Z,101344.94
2023-05-12T13:31:28.243Z,101344.78
2023-05-12T13:33:54.941Z,101360.69
2023-05-12T13:36:21.542Z,101353.50
2023-05-12T13:38:48.129Z,101356.63
2023-05-12T13:41:14.834Z,101350.56
2023-05-12T13:43:41.454Z,101349.91
2023-05-12T13:46:09.570Z,101342.22
2023-05-12T13:48:36.210Z,101340.25
2023-05-12T13:51:02.873Z,101337.34
2023-05-12T13:53:29.449Z,101337.44
2023-05-12T13:55:56.123Z,101343.66
2023-05-12T13:58:22.773Z,101349.31
2023-05-12T14:00:49.397Z,101338.56
2023-05-12T14:03:16.012Z,101337.81
2023-05-12T14:05:42.604Z,101342.41
2023-05-12T14:08:09.195Z,101339.06
2023-05-12T14:10:35.920Z,101332.34
2023-05-12T14:13:02.536Z,101326.38
2023-05-12T14:15:40.500Z,101336.09
2023-05-12T14:18:14.884Z,101335.66
2023-05-12T14:20:41.882Z,101340.31
2023-05-12T14:23:08.639Z,101340.06
2023-05-12T14:25:35.404Z,101327.16
2023-05-12T14:28:02.698Z,101332.00
2023-05-12T14:30:29.885Z,101332.88
2023-05-12T14:32:56.548Z,101326.34
2023-05-12T14:35:27.514Z,101332.63
2023-05-12T14:37:57.083Z,101328.84
2023-05-12T14:40:24.048Z,101324.91
2023-05-12T14:42:50.671Z,101328.88
2023-05-12T14:45:17.714Z,101342.00
2023-05-12T14:47:44.596Z,101339.25
2023-05-12T14:50:11.914Z,101337.41
2023-05-12T14:52:38.623Z,101325.00
2023-05-12T14:55:12.436Z,101339.47
2023-05-12T14:57:43.059Z,101326.06
2023-05-12T15:00:15.235Z,101340.25
2023-05-12T15:02:45.617Z,101328.13
2023-05-12T15:05:16.266Z,101329.19
2023-05-12T15:07:42.916Z,101328.41
2023-05-12T15:10:10.039Z,101331.75
2023-05-12T15:12:36.652Z,101330.06
2023-05-12T15:15:05.274Z,101337.09
2023-05-12T15:17:32.191Z,101324.03
2023-05-12T15:19:59.050Z,101329.53
2023-05-12T15:22:25.707Z,101317.22
2023-05-12T15:24:52.318Z,101337.22
2023-05-12T15:27:18.929Z,101336.06
2023-05-12T15:29:45.842Z,101333.00
2023-05-12T15:32:12.392Z,101334.97
2023-05-12T15:34:39.246Z,101322.72
2023-05-12T15:37:05.886Z,101321.50
2023-05-12T15:39:32.468Z,101322.38
2023-05-12T15:42:00.164Z,101322.28
2023-05-12T15:44:27.073Z,101325.88
2023-05-12T15:46:53.820Z,101330.56
2023-05-12T15:49:20.471Z,101335.19
2023-05-12T15:51:47.088Z,101333.56
2023-05-12T15:54:13.900Z,101326.09
2023-05-12T15:56:40.494Z,101338.28
2023-05-12T15:59:07.545Z,101334.25
2023-05-12T16:01:34.480Z,101321.25
2023-05-12T16:04:01.385Z,101324.63
2023-05-12T16:06:28.212Z,101319.47
2023-05-12T16:08:55.111Z,101330.19
2023-05-12T16:11:22.377Z,101338.13
2023-05-12T16:13:52.322Z,101332.75
2023-05-12T16:16:19.524Z,101330.66
2023-05-12T16:18:46.267Z,101322.75
2023-05-12T16:21:13.280Z,101322.31
2023-05-12T16:23:39.930Z,101320.81
2023-05-12T16:26:07.008Z,101318.84
2023-05-12T16:28:34.803Z,101331.38
2023-05-12T16:31:04.821Z,101320.97
2023-05-12T16:33:31.420Z,101329.84
2023-05-12T16:35:58.024Z,101323.38
2023-05-12T16:38:24.625Z,101322.06
2023-05-12T16:40:51.320Z,101325.56
2023-05-12T16:43:17.928Z,101334.00
2023-05-12T16:45:44.544Z,101343.09
2023-05-12T16:48:11.154Z,101331.44
2023-05-12T16:50:37.787Z,101337.00
2023-05-12T16:53:04.639Z,101335.41
2023-05-12T16:55:31.232Z,101325.47
2023-05-12T16:57:57.932Z,101332.19
2023-05-12T17:00:24.671Z,101329.88
2023-05-12T17:02:51.473Z,101332.09
2023-05-12T17:05:18.376Z,101330.63
2023-05-12T17:07:45.162Z,101331.53
2023-05-12T17:10:11.793Z,101337.16
2023-05-12T17:12:38.513Z,101333.25
2023-05-12T17:15:08.515Z,101333.41
2023-05-12T17:17:35.987Z,101331.56
2023-05-12T17:20:02.933Z,101339.34
2023-05-12T17:22:30.953Z,101338.84
2023-05-12T17:24:57.561Z,101335.19
2023-05-12T17:27:24.116Z,101336.19
2023-05-12T17:29:50.726Z,101344.66
2023-05-12T17:32:17.306Z,101350.91
2023-05-12T17:34:44.070Z,101351.28
2023-05-12T17:37:10.686Z,101352.59
2023-05-12T17:39:40.517Z,101355.59
2023-05-12T17:42:07.473Z,101358.38
2023-05-12T17:44:34.120Z,101366.72
2023-05-12T17:47:00.929Z,101366.97
2023-05-12T17:49:27.561Z,101357.53
2023-05-12T17:51:55.009Z,101368.69
2023-05-12T17:54:21.708Z,101369.34
2023-05-12T17:56:48.661Z,101369.53
2023-05-12T17:59:15.405Z,101372.16
2023-05-12T18:01:42.061Z,101373.16
2023-05-12T18:04:09.100Z,101382.00
2023-05-12T18:06:35.771Z,101379.09
2023-05-12T18:09:02.860Z,101382.66
2023-05-12T18:11:30.156Z,101379.31
2023-05-12T18:13:56.768Z,101386.44
2023-05-12T18:16:29.079Z,101385.16
2023-05-12T18:18:56.275Z,101385.34
2023-05-12T18:21:22.987Z,101380.97
2023-05-12T18:23:49.657Z,101374.34
2023-05-12T18:26:16.238Z,101378.72
2023-05-12T18:28:42.836Z,101385.09
2023-05-12T18:31:15.924Z,101374.16
2023-05-12T18:33:46.008Z,101382.72
2023-05-12T18:36:13.026Z,101386.84
2023-05-12T18:38:39.723Z,101388.94
2023-05-12T18:41:06.744Z,101392.16
2023-05-12T18:43:34.919Z,101400.66
2023-05-12T18:46:02.268Z,101404.88
2023-05-12T18:48:28.998Z,101410.09
2023-05-12T18:50:56.314Z,101411.81
2023-05-12T18:53:23.372Z,101411.22
2023-05-12T18:55:50.361Z,101406.22
2023-05-12T18:58:17.539Z,101419.19
2023-05-12T19:00:44.992Z,101423.41
2023-05-12T19:03:11.721Z,101417.63
2023-05-12T19:05:42.176Z,101414.84
2023-05-12T19:08:08.795Z,101421.97
2023-05-12T19:10:36.698Z,101425.84
2023-05-12T19:13:05.300Z,101426.13
2023-05-12T19:15:31.902Z,101426.97
2023-05-12T19:17:58.549Z,101425.84
2023-05-12T19:20:25.168Z,101433.34
2023-05-12T19:22:51.765Z,101436.69
2023-05-12T19:25:18.477Z,101434.00
2023-05-12T19:27:45.945Z,101434.06
2023-05-12T19:30:14.239Z,101434.72
2023-05-12T19:32:42.513Z,101431.22
2023-05-12T19:35:12.495Z,101439.94
2023-05-12T19:37:39.365Z,101440.81
2023-05-12T19:40:06.766Z,101433.44
2023-05-12T19:42:34.619Z,101444.56
2023-05-12T19:45:01.278Z,101445.09
2023-05-12T19:47:28.139Z,101446.00
2023-05-12T19:49:55.067Z,101447.47
2023-05-12T19:52:24.707Z,101454.25
2023-05-12T19:54:52.500Z,101450.94
2023-05-12T19:57:19.889Z,101449.94
2023-05-12T19:59:46.610Z,101454.28
2023-05-12T20:02:15.036Z,101456.56
2023-05-12T20:04:41.883Z,101459.25
2023-05-12T20:07:08.736Z,101462.09
2023-05-12T20:09:35.416Z,101464.22
2023-05-12T20:12:02.280Z,101458.16
2023-05-12T20:14:28.856Z,101458.53
2023-05-12T20:16:56.243Z,101456.88
2023-05-12T20:19:22.978Z,101459.22
2023-05-12T20:21:49.578Z,101455.53
2023-05-12T20:24:16.423Z,101456.28
2023-05-12T20:26:43.280Z,101460.97
2023-05-12T20:29:09.875Z,101463.63
2023-05-12T20:31:36.543Z,101457.56
2023-05-12T20:34:03.266Z,101460.44
2023-05-12T20:36:29.868Z,101460.66
2023-05-12T20:38:56.466Z,101458.88
2023-05-12T20:41:23.042Z,101462.00
2023-05-12T20:43:49.633Z,101466.69
2023-05-12T20:46:16.279Z,101456.94
2023-05-12T20:48:42.982Z,101469.63
2023-05-12T20:51:12.884Z,101459.78
2023-05-12T20:53:39.825Z,101461.25
2023-05-12T20:56:08.353Z,101460.16
2023-05-12T20:58:35.350Z,101459.91
2023-05-12T21:01:01.981Z,101476.41
2023-05-12T21:03:28.649Z,101475.22
2023-05-12T21:05:55.332Z,101472.31
2023-05-12T21:08:21.911Z,101473.88
2023-05-12T21:10:48.864Z,101473.06
2023-05-12T21:13:15.569Z,101481.09
2023-05-12T21:15:42.254Z,101483.97
2023-05-12T21:18:09.059Z,101485.78
2023-05-12T21:20:35.959Z,101478.94
2023-05-12T21:23:03.311Z,101486.03
2023-05-12T21:25:29.906Z,101483.88
2023-05-12T21:27:56.521Z,101490.81
2023-05-12T21:30:23.270Z,101491.19
2023-05-12T21:32:50.059Z,101494.19
2023-05-12T21:35:16.806Z,101485.16
2023-05-12T21:37:43.499Z,101491.53
2023-05-12T21:40:10.436Z,101484.34
2023-05-12T21:42:37.054Z,101484.09
2023-05-12T21:45:03.998Z,101487.34
2023-05-12T21:47:30.636Z,101487.66
2023-05-12T21:49:57.297Z,101492.19
2023-05-12T21:52:23.893Z,101486.31
2023-05-12T21:54:50.565Z,101489.81
2023-05-12T21:57:17.225Z,101485.47
2023-05-12T21:59:43.834Z,101489.06
2023-05-12T22:02:10.873Z,101490.53
2023-05-12T22:04:37.501Z,101494.72
2023-05-12T22:07:04.343Z,101485.09
2023-05-12T22:09:31.412Z,101486.50
2023-05-12T22:11:58.167Z,101486.13
2023-05-12T22:14:24.885Z,101483.34
2023-05-12T22:16:51.660Z,101488.16
2023-05-12T22:19:21.398Z,101480.56
2023-05-12T22:21:48.019Z,101483.59
2023-05-12T22:24:15.061Z,101484.63
2023-05-12T22:26:41.683Z,101494.25
2023-05-12T22:29:08.276Z,101483.06
2023-05-12T22:31:35.045Z,101479.47
2023-05-12T22:34:01.774Z,101482.84
2023-05-12T22:36:28.420Z,101483.19
2023-05-12T22:38:55.498Z,101483.03
2023-05-12T22:41:22.078Z,101483.16
2023-05-12T22:43:48.673Z,101492.13
2023-05-12T22:46:15.281Z,101485.50
2023-05-12T22:48:42.672Z,101491.25
2023-05-12T22:51:09.685Z,101498.88
2023-05-12T22:53:36.666Z,101491.97
2023-05-12T22:56:04.536Z,101491.78
2023-05-12T22:58:31.472Z,101492.34
2023-05-12T23:00:58.200Z,101494.56
2023-05-12T23:03:24.956Z,101484.75
2023-05-12T23:05:51.627Z,101492.66
2023-05-12T23:08:18.232Z,101487.59
2023-05-12T23:10:44.836Z,101486.84
2023-05-12T23:13:11.409Z,101491.41
2023-05-12T23:15:38.392Z,101490.91
2023-05-12T23:18:05.009Z,101488.75
2023-05-12T23:20:31.884Z,101487.72
2023-05-12T23:22:58.620Z,101488.19
2023-05-12T23:25:25.325Z,101487.13
2023-05-12T23:27:51.976Z,101481.56
2023-05-12T23:30:18.665Z,101486.47
2023-05-12T23:32:45.752Z,101474.78
2023-05-12T23:35:12.373Z,101478.19
2023-05-12T23:37:38.945Z,101476.31
2023-05-12T23:40:06.585Z,101483.47
2023-05-12T23:42:33.174Z,101478.09
2023-05-12T23:44:59.757Z,101484.59
2023-05-12T23:47:26.433Z,101485.31
2023-05-12T23:49:53.131Z,101480.69
2023-05-12T23:52:19.699Z,101485.44
2023-05-12T23:54:46.262Z,101489.50
2023-05-12T23:57:12.957Z,101483.31
2023-05-12T23:59:39.531Z,101482.56
